Open Full Screen Window  High Contrast Mode
July 20, 2018 4:53 AM EDT
Weather Information
Wind Direction
  ---
Wind Speed
  00 kt (0 mph)
Wind Gust
  00 kt (0 mph)
Altimeter
29.91 in
Visibility
10 SM
Temperature
20° C
68° F
Dewpoint
20° C
68° F
Humidity
100%
1hr Rain Fall
00.00 in.
24hr Rain Fall
00.00 in.
Sky Condition
Broken @ 11,000 ft
VFR

METAR KI69 200853Z AUTO 00000KT 10SM BKN110 20/20 A2991 RMK AO2 T01970195

FAA Disclaimer: The data displayed is for advisory purposes only and is not to be used for flight planning or operations.